createdAt,value
2018-09-24T00:00:37.124Z,1.85
2018-09-24T00:03:06.229Z,2.00
2018-09-24T00:05:35.401Z,1.72
2018-09-24T00:08:04.556Z,1.95
2018-09-24T00:10:33.365Z,2.40
2018-09-24T00:13:02.176Z,2.20
2018-09-24T00:15:30.994Z,2.10
2018-09-24T00:17:59.859Z,2.87
2018-09-24T00:20:28.337Z,2.80
2018-09-24T00:22:57.149Z,2.67
2018-09-24T00:25:25.981Z,3.15
2018-09-24T00:27:54.872Z,2.95
2018-09-24T00:30:23.355Z,3.98
2018-09-24T00:32:51.828Z,3.72
2018-09-24T00:35:20.345Z,4.58
2018-09-24T00:37:48.831Z,4.75
2018-09-24T00:40:17.360Z,3.83
2018-09-24T00:42:45.838Z,3.95
2018-09-24T00:45:14.648Z,3.87
2018-09-24T00:47:43.120Z,3.90
2018-09-24T00:50:11.589Z,5.08
2018-09-24T00:52:40.070Z,4.45
2018-09-24T00:55:09.240Z,5.25
2018-09-24T00:57:37.756Z,4.72
2018-09-24T01:00:06.330Z,4.95
2018-09-24T01:02:34.813Z,5.10
2018-09-24T01:05:03.971Z,5.17
2018-09-24T01:07:32.501Z,5.60
2018-09-24T01:10:01.391Z,5.08
2018-09-24T01:12:29.904Z,5.70
2018-09-24T01:14:58.404Z,5.70
2018-09-24T01:17:26.891Z,5.97
2018-09-24T01:19:55.362Z,6.75
2018-09-24T01:22:23.917Z,5.80
2018-09-24T01:24:52.406Z,6.87
2018-09-24T01:27:22.167Z,6.20
2018-09-24T01:29:50.658Z,5.95
2018-09-24T01:32:19.492Z,5.55
2018-09-24T01:34:48.076Z,5.80
2018-09-24T01:37:16.916Z,5.35
2018-09-24T01:39:45.692Z,5.80
2018-09-24T01:42:14.341Z,4.95
2018-09-24T01:44:42.845Z,4.28
2018-09-24T01:47:11.342Z,4.03
2018-09-24T01:49:39.874Z,3.70
2018-09-24T01:52:08.772Z,4.08
2018-09-24T01:54:37.488Z,3.55
2018-09-24T01:57:13.136Z,3.75
2018-09-24T01:59:42.901Z,4.50
2018-09-24T02:02:12.660Z,3.50
2018-09-24T02:04:41.162Z,3.30
2018-09-24T02:07:09.664Z,3.52
2018-09-24T02:09:38.153Z,3.22
2018-09-24T02:12:08.222Z,3.25
2018-09-24T02:14:38.180Z,3.58
2018-09-24T02:17:11.336Z,2.90
2018-09-24T02:19:40.167Z,3.25
2018-09-24T02:22:09.449Z,2.90
2018-09-24T02:24:37.928Z,3.00
2018-09-24T02:27:07.564Z,2.75
2018-09-24T02:29:37.208Z,3.20
2018-09-24T02:32:06.339Z,3.17
2018-09-24T02:34:35.340Z,2.50
2018-09-24T02:37:04.136Z,3.00
2018-09-24T02:39:32.990Z,2.90
2018-09-24T02:42:02.146Z,3.15
2018-09-24T02:44:30.613Z,3.83
2018-09-24T02:46:59.094Z,3.50
2018-09-24T02:49:27.996Z,3.60
2018-09-24T02:52:01.721Z,3.42
2018-09-24T02:54:31.572Z,3.12
2018-09-24T02:57:00.069Z,3.35
2018-09-24T02:59:28.882Z,3.00
2018-09-24T03:01:58.046Z,3.40
2018-09-24T03:04:26.876Z,3.37
2018-09-24T03:06:56.020Z,2.47
2018-09-24T03:09:25.681Z,3.00
2018-09-24T03:11:54.177Z,2.80
2018-09-24T03:14:24.243Z,2.70
2018-09-24T03:16:54.226Z,2.45
2018-09-24T03:19:23.636Z,2.95
2018-09-24T03:21:52.145Z,2.70
2018-09-24T03:24:20.623Z,3.65
2018-09-24T03:26:49.781Z,2.85
2018-09-24T03:29:20.605Z,3.83
2018-09-24T03:31:49.432Z,4.45
2018-09-24T03:34:18.752Z,2.65
2018-09-24T03:36:48.048Z,3.50
2018-09-24T03:39:17.213Z,3.08
2018-09-24T03:41:46.079Z,3.15
2018-09-24T03:44:14.710Z,2.95
2018-09-24T03:46:43.529Z,4.65
2018-09-24T03:49:12.378Z,2.65
2018-09-24T03:51:41.206Z,3.50
2018-09-24T03:54:10.701Z,2.75
2018-09-24T03:56:39.861Z,2.85
2018-09-24T03:59:08.850Z,2.92
2018-09-24T04:01:38.185Z,3.20
2018-09-24T04:04:12.440Z,3.10
2018-09-24T04:06:47.226Z,2.77
2018-09-24T04:09:21.325Z,3.17
2018-09-24T04:11:55.479Z,2.25
2018-09-24T04:14:29.604Z,2.87
2018-09-24T04:17:03.833Z,2.45
2018-09-24T04:19:38.560Z,3.25
2018-09-24T04:22:13.265Z,2.62
2018-09-24T04:24:50.409Z,3.15
2018-09-24T04:27:24.488Z,2.37
2018-09-24T04:29:58.437Z,2.50
2018-09-24T04:32:32.768Z,2.33
2018-09-24T04:35:07.060Z,2.45
2018-09-24T04:37:40.952Z,2.67
2018-09-24T04:40:15.506Z,1.85
2018-09-24T04:42:49.792Z,2.22
2018-09-24T04:45:24.680Z,2.00
2018-09-24T04:47:59.070Z,2.62
2018-09-24T04:50:33.516Z,2.50
2018-09-24T04:53:07.466Z,2.90
2018-09-24T04:55:42.460Z,3.10
2018-09-24T04:58:16.351Z,2.40
2018-09-24T05:00:52.546Z,2.67
2018-09-24T05:03:28.596Z,2.42
2018-09-24T05:06:02.577Z,2.00
2018-09-24T05:08:36.502Z,2.10
2018-09-24T05:11:10.701Z,2.25
2018-09-24T05:13:44.877Z,3.10
2018-09-24T05:16:19.617Z,2.60
2018-09-24T05:18:54.333Z,2.67
2018-09-24T05:21:28.887Z,2.75
2018-09-24T05:24:02.891Z,2.95
2018-09-24T05:26:41.369Z,2.40
2018-09-24T05:29:15.522Z,2.83
2018-09-24T05:31:49.628Z,2.47
2018-09-24T05:34:23.564Z,2.33
2018-09-24T05:36:57.984Z,2.05
2018-09-24T05:39:31.980Z,2.00
2018-09-24T05:42:06.537Z,2.12
2018-09-24T05:44:40.713Z,2.10
2018-09-24T05:47:15.485Z,2.85
2018-09-24T05:49:49.384Z,2.80
2018-09-24T05:52:23.371Z,2.50
2018-09-24T05:54:57.483Z,2.65
2018-09-24T05:57:31.628Z,2.27
2018-09-24T06:00:05.913Z,2.20
2018-09-24T06:02:39.833Z,2.20
2018-09-24T06:05:14.118Z,2.17
2018-09-24T06:07:48.894Z,2.05
2018-09-24T06:10:23.004Z,1.98
2018-09-24T06:12:56.890Z,3.12
2018-09-24T06:15:30.809Z,2.52
2018-09-24T06:18:06.619Z,2.37
2018-09-24T06:20:41.304Z,1.77
2018-09-24T06:23:15.286Z,2.05
2018-09-24T06:25:49.103Z,1.85
2018-09-24T06:28:23.979Z,1.57
2018-09-24T06:30:58.008Z,1.50
2018-09-24T06:33:31.999Z,1.60
2018-09-24T06:36:05.979Z,2.52
2018-09-24T06:38:40.941Z,1.82
2018-09-24T06:41:15.567Z,1.72
2018-09-24T06:43:49.619Z,1.70
2018-09-24T06:46:23.800Z,1.70
2018-09-24T06:48:58.821Z,1.90
2018-09-24T06:51:32.801Z,1.62
2018-09-24T06:54:07.058Z,2.30
2018-09-24T06:56:41.764Z,1.80
2018-09-24T06:59:16.688Z,2.20
2018-09-24T07:01:51.108Z,2.00
2018-09-24T07:04:25.461Z,1.87
2018-09-24T07:06:59.740Z,2.25
2018-09-24T07:09:34.021Z,1.40
2018-09-24T07:12:08.231Z,1.40
2018-09-24T07:14:43.241Z,1.95
2018-09-24T07:17:17.672Z,1.70
2018-09-24T07:19:53.083Z,2.70
2018-09-24T07:22:28.029Z,3.15
2018-09-24T07:25:02.793Z,2.25
2018-09-24T07:27:36.703Z,2.10
2018-09-24T07:30:11.470Z,2.42
2018-09-24T07:32:45.727Z,2.15
2018-09-24T07:35:20.377Z,1.60
2018-09-24T07:37:54.430Z,1.90
2018-09-24T07:40:28.758Z,1.60
2018-09-24T07:43:02.874Z,3.92
2018-09-24T07:45:37.067Z,1.98
2018-09-24T07:48:11.600Z,2.08
2018-09-24T07:50:47.025Z,1.90
2018-09-24T07:53:21.432Z,2.05
2018-09-24T07:55:55.398Z,1.92
2018-09-24T07:58:29.582Z,2.00
2018-09-24T08:01:04.353Z,1.85
2018-09-24T08:03:38.465Z,2.35
2018-09-24T08:06:12.685Z,1.87
2018-09-24T08:08:46.949Z,1.87
2018-09-24T08:11:21.763Z,1.82
2018-09-24T08:13:56.343Z,2.42
2018-09-24T08:16:30.572Z,1.82
2018-09-24T08:19:04.942Z,1.62
2018-09-24T08:21:41.143Z,1.65
2018-09-24T08:24:14.980Z,2.20
2018-09-24T08:26:49.228Z,1.65
2018-09-24T08:29:23.075Z,2.45
2018-09-24T08:31:57.572Z,1.52
2018-09-24T08:34:31.444Z,3.37
2018-09-24T08:38:30.344Z,1.10
2018-09-24T08:41:04.212Z,1.70
2018-09-24T08:43:38.178Z,2.05
2018-09-24T08:46:13.086Z,2.00
2018-09-24T08:48:47.378Z,2.25
2018-09-24T08:51:21.612Z,1.80
2018-09-24T08:53:56.350Z,1.47
2018-09-24T08:56:32.124Z,1.50
2018-09-24T08:59:06.249Z,1.75
2018-09-24T09:01:46.595Z,1.37
2018-09-24T09:04:21.233Z,2.80
2018-09-24T09:06:55.550Z,1.37
2018-09-24T09:09:29.946Z,2.10
2018-09-24T09:12:04.864Z,1.65
2018-09-24T09:14:40.212Z,3.20
2018-09-24T09:17:14.538Z,1.10
2018-09-24T09:19:49.190Z,1.95
2018-09-24T09:22:23.846Z,1.32
2018-09-24T09:24:58.399Z,1.00
2018-09-24T09:27:33.434Z,1.35
2018-09-24T09:30:11.594Z,2.95
2018-09-24T09:32:45.993Z,1.70
2018-09-24T09:35:19.922Z,2.10
2018-09-24T09:37:53.980Z,2.08
2018-09-24T09:40:35.469Z,1.12
2018-09-24T09:43:10.547Z,1.35
2018-09-24T09:45:44.719Z,1.87
2018-09-24T09:48:18.569Z,2.08
2018-09-24T09:50:52.585Z,1.30
2018-09-24T09:53:27.555Z,1.50
2018-09-24T09:56:02.328Z,1.37
2018-09-24T09:58:36.857Z,1.40
2018-09-24T10:01:11.018Z,1.27
2018-09-24T10:03:46.147Z,1.35
2018-09-24T10:06:20.102Z,1.30
2018-09-24T10:08:53.924Z,1.65
2018-09-24T10:11:27.753Z,1.75
2018-09-24T10:14:02.000Z,1.65
2018-09-24T10:16:36.045Z,1.20
2018-09-24T10:19:10.239Z,1.57
2018-09-24T10:21:44.245Z,2.08
2018-09-24T10:24:19.150Z,1.92
2018-09-24T10:26:53.141Z,1.90
2018-09-24T10:29:27.540Z,1.55
2018-09-24T10:32:02.381Z,1.60
2018-09-24T10:34:38.788Z,2.65
2018-09-24T10:37:12.956Z,1.40
2018-09-24T10:39:48.052Z,1.42
2018-09-24T10:42:22.400Z,1.72
2018-09-24T10:44:57.188Z,1.80
2018-09-24T10:47:31.073Z,2.10
2018-09-24T10:50:05.233Z,1.45
2018-09-24T10:52:39.171Z,1.92
2018-09-24T10:55:13.682Z,1.30
2018-09-24T10:57:47.863Z,1.55
2018-09-24T11:00:21.779Z,2.05
2018-09-24T11:02:56.361Z,1.00
2018-09-24T11:05:30.985Z,1.98
2018-09-24T11:08:05.024Z,1.40
2018-09-24T11:10:39.052Z,1.60
2018-09-24T11:13:13.458Z,1.60
2018-09-24T11:15:48.836Z,1.10
2018-09-24T11:18:22.697Z,1.40
2018-09-24T11:20:56.589Z,1.20
2018-09-24T11:23:30.665Z,1.40
2018-09-24T11:26:05.833Z,1.15
2018-09-24T11:28:39.754Z,2.00
2018-09-24T11:31:13.922Z,1.50
2018-09-24T11:33:48.137Z,1.67
2018-09-24T11:36:22.804Z,1.70
2018-09-24T11:38:57.088Z,1.47
2018-09-24T11:41:31.816Z,1.52
2018-09-24T11:44:05.718Z,2.20
2018-09-24T11:46:40.301Z,0.90
2018-09-24T11:49:14.448Z,1.57
2018-09-24T11:51:48.749Z,1.60
2018-09-24T11:54:23.080Z,1.32
2018-09-24T11:56:57.273Z,2.95
2018-09-24T11:59:31.489Z,1.30
2018-09-24T12:02:06.904Z,1.35
2018-09-24T12:04:41.209Z,1.15
2018-09-24T12:07:15.547Z,1.57
2018-09-24T12:09:49.549Z,1.32
2018-09-24T12:12:23.378Z,1.75
2018-09-24T12:14:57.308Z,1.05
2018-09-24T12:17:31.700Z,1.30
2018-09-24T12:20:05.918Z,1.10
2018-09-24T12:22:40.549Z,1.82
2018-09-24T12:25:14.566Z,1.72
2018-09-24T12:27:49.785Z,1.12
2018-09-24T12:30:24.048Z,1.60
2018-09-24T12:32:57.913Z,1.25
2018-09-24T12:35:32.058Z,1.45
2018-09-24T12:38:07.161Z,1.30
2018-09-24T12:40:41.111Z,1.30
2018-09-24T12:43:15.403Z,2.02
2018-09-24T12:45:49.720Z,1.98
2018-09-24T12:48:24.284Z,1.40
2018-09-24T12:50:58.893Z,1.82
2018-09-24T12:53:33.160Z,2.10
2018-09-24T12:56:07.227Z,1.92
2018-09-24T12:58:42.223Z,2.22
2018-09-24T13:01:16.126Z,1.35
2018-09-24T13:03:50.378Z,1.95
2018-09-24T13:06:24.428Z,1.52
2018-09-24T13:08:59.805Z,1.80
2018-09-24T13:11:34.062Z,2.02
2018-09-24T13:14:08.107Z,1.62
2018-09-24T13:16:42.498Z,1.32
2018-09-24T13:19:16.746Z,1.30
2018-09-24T13:21:50.728Z,1.67
2018-09-24T13:24:24.564Z,1.77
2018-09-24T13:26:58.477Z,1.40
2018-09-24T13:29:32.975Z,1.10
2018-09-24T13:32:06.855Z,1.30
2018-09-24T13:34:40.858Z,1.70
2018-09-24T13:37:15.152Z,1.27
2018-09-24T13:39:49.468Z,1.30
2018-09-24T13:42:23.512Z,1.12
2018-09-24T13:44:57.715Z,1.20
2018-09-24T13:47:32.012Z,1.40
2018-09-24T13:50:06.077Z,1.07
2018-09-24T13:52:40.297Z,1.60
2018-09-24T13:55:14.165Z,1.25
2018-09-24T13:57:48.713Z,1.15
2018-09-24T14:00:23.516Z,1.20
2018-09-24T14:02:57.453Z,1.75
2018-09-24T14:05:31.346Z,0.93
2018-09-24T14:08:05.539Z,1.10
2018-09-24T14:10:39.999Z,1.52
2018-09-24T14:13:14.273Z,1.02
2018-09-24T14:15:48.589Z,1.02
2018-09-24T14:18:22.550Z,1.12
2018-09-24T14:20:56.876Z,1.30
2018-09-24T14:23:30.795Z,1.10
2018-09-24T14:26:05.090Z,1.50
2018-09-24T14:28:39.807Z,1.82
2018-09-24T14:31:14.205Z,1.82
2018-09-24T14:33:48.428Z,1.30
2018-09-24T14:36:22.492Z,1.35
2018-09-24T14:38:56.877Z,1.67
2018-09-24T14:41:30.950Z,1.15
2018-09-24T14:44:05.064Z,1.25
2018-09-24T14:46:39.741Z,2.00
2018-09-24T14:49:13.980Z,1.40
2018-09-24T14:51:48.184Z,1.30
2018-09-24T14:54:22.640Z,0.90
2018-09-24T14:56:57.885Z,1.60
2018-09-24T14:59:32.133Z,2.12
2018-09-24T15:02:07.056Z,1.20
2018-09-24T15:04:40.985Z,1.27
2018-09-24T15:07:15.027Z,1.15
2018-09-24T15:09:49.201Z,1.57
2018-09-24T15:12:24.783Z,2.00
2018-09-24T15:14:58.661Z,1.17
2018-09-24T15:17:32.491Z,1.10
2018-09-24T15:20:06.422Z,1.10
2018-09-24T15:22:40.894Z,1.32
2018-09-24T15:25:14.868Z,1.12
2018-09-24T15:27:49.064Z,0.90
2018-09-24T15:30:23.027Z,1.22
2018-09-24T15:32:57.477Z,1.10
2018-09-24T15:35:31.404Z,1.35
2018-09-24T15:38:06.030Z,1.00
2018-09-24T15:40:40.572Z,1.40
2018-09-24T15:43:15.334Z,1.02
2018-09-24T15:45:49.881Z,1.20
2018-09-24T15:48:23.771Z,1.85
2018-09-24T15:50:57.616Z,1.10
2018-09-24T15:53:33.148Z,1.52
2018-09-24T15:56:07.203Z,0.95
2018-09-24T15:58:41.223Z,0.88
2018-09-24T16:01:15.141Z,1.10
2018-09-24T16:03:49.349Z,1.00
2018-09-24T16:06:23.337Z,1.45
2018-09-24T16:08:57.211Z,1.47
2018-09-24T16:11:31.649Z,1.25
2018-09-24T16:14:05.973Z,0.80
2018-09-24T16:16:40.122Z,1.50
2018-09-24T16:19:13.976Z,0.85
2018-09-24T16:21:48.923Z,1.00
2018-09-24T16:24:23.766Z,0.90
2018-09-24T16:26:57.798Z,1.42
2018-09-24T16:29:32.232Z,1.20
2018-09-24T16:32:06.852Z,0.90
2018-09-24T16:34:42.234Z,1.40
2018-09-24T16:37:17.496Z,1.22
2018-09-24T16:39:51.743Z,1.10
2018-09-24T16:42:25.883Z,0.85
2018-09-24T16:45:01.512Z,1.20
2018-09-24T16:47:36.085Z,0.93
2018-09-24T16:50:09.974Z,1.50
2018-09-24T16:52:44.019Z,1.00
2018-09-24T16:55:18.288Z,1.20
2018-09-24T16:57:52.323Z,1.27
2018-09-24T17:00:27.221Z,0.90
2018-09-24T17:03:01.071Z,1.37
2018-09-24T17:05:36.053Z,0.90
2018-09-24T17:08:10.005Z,1.00
2018-09-24T17:10:44.233Z,1.20
2018-09-24T17:13:18.227Z,1.22
2018-09-24T17:15:53.558Z,0.90
2018-09-24T17:18:27.813Z,0.88
2018-09-24T17:21:02.475Z,0.93
2018-09-24T17:23:36.468Z,1.52
2018-09-24T17:26:10.968Z,1.05
2018-09-24T17:28:45.126Z,1.00
2018-09-24T17:31:18.979Z,1.20
2018-09-24T17:33:53.330Z,0.90
2018-09-24T17:36:28.337Z,1.60
2018-09-24T17:39:02.905Z,1.32
2018-09-24T17:41:39.182Z,1.30
2018-09-24T17:44:13.528Z,1.07
2018-09-24T17:46:48.365Z,0.95
2018-09-24T17:49:23.037Z,1.25
2018-09-24T17:51:57.264Z,1.10
2018-09-24T17:54:31.124Z,0.95
2018-09-24T17:57:05.664Z,1.15
2018-09-24T17:59:39.880Z,1.37
2018-09-24T18:02:15.603Z,1.57
2018-09-24T18:04:49.456Z,1.35
2018-09-24T18:07:24.408Z,1.20
2018-09-24T18:10:04.608Z,1.00
2018-09-24T18:12:39.116Z,1.40
2018-09-24T18:15:13.563Z,1.00
2018-09-24T18:17:48.331Z,1.10
2018-09-24T18:20:22.908Z,1.20
2018-09-24T18:22:56.908Z,1.10
2018-09-24T18:25:31.314Z,1.50
2018-09-24T18:28:06.249Z,1.45
2018-09-24T18:30:41.229Z,1.20
2018-09-24T18:33:15.519Z,1.30
2018-09-24T18:35:49.458Z,1.60
2018-09-24T18:38:29.946Z,1.70
2018-09-24T18:41:04.174Z,1.15
2018-09-24T18:43:38.400Z,0.90
2018-09-24T18:46:12.644Z,1.37
2018-09-24T18:48:46.749Z,1.98
2018-09-24T18:51:20.645Z,1.30
2018-09-24T18:53:54.769Z,1.30
2018-09-24T18:56:29.392Z,1.50
2018-09-24T18:59:04.738Z,1.20
2018-09-24T19:01:38.985Z,1.20
2018-09-24T19:04:33.381Z,1.20
2018-09-24T19:07:09.195Z,1.32
2018-09-24T19:09:45.877Z,1.50
2018-09-24T19:15:24.758Z,1.40
2018-09-24T19:18:03.305Z,1.10
2018-09-24T19:20:37.175Z,1.05
2018-09-24T19:23:16.291Z,1.35
2018-09-24T19:25:50.322Z,1.25
2018-09-24T19:28:25.344Z,1.30
2018-09-24T19:30:59.740Z,1.40
2018-09-24T19:33:34.537Z,1.12
2018-09-24T19:36:09.106Z,1.20
2018-09-24T19:38:43.563Z,1.45
2018-09-24T19:41:17.839Z,1.10
2018-09-24T19:43:53.853Z,1.40
2018-09-24T19:46:35.594Z,1.35
2018-09-24T19:49:12.348Z,1.30
2018-09-24T19:51:46.512Z,1.20
2018-09-24T19:54:20.757Z,1.57
2018-09-24T19:59:42.533Z,1.70
2018-09-24T20:02:16.417Z,1.07
2018-09-24T20:04:50.531Z,1.17
2018-09-24T20:07:34.062Z,1.15
2018-09-24T20:10:08.334Z,1.40
2018-09-24T20:12:43.161Z,1.00
2018-09-24T20:15:18.767Z,1.25
2018-09-24T20:17:52.898Z,1.20
2018-09-24T20:20:26.700Z,1.25
2018-09-24T20:23:00.573Z,1.20
2018-09-24T20:25:36.172Z,1.50
2018-09-24T20:28:11.502Z,1.37
2018-09-24T20:30:45.390Z,1.57
2018-09-24T20:33:19.208Z,2.00
2018-09-24T20:35:54.121Z,1.30
2018-09-24T20:38:28.520Z,1.12
2018-09-24T20:41:02.559Z,1.10
2018-09-24T20:43:36.453Z,1.60
2018-09-24T20:46:11.921Z,1.85
2018-09-24T20:48:46.376Z,1.00
2018-09-24T20:51:20.693Z,1.40
2018-09-24T20:53:54.645Z,1.50
2018-09-24T20:56:30.481Z,1.20
2018-09-24T20:59:04.807Z,1.07
2018-09-24T21:01:41.116Z,1.35
2018-09-24T21:04:15.098Z,1.20
2018-09-24T21:06:49.411Z,1.37
2018-09-24T21:09:23.869Z,1.42
2018-09-24T21:11:58.005Z,1.50
2018-09-24T21:14:32.401Z,1.25
2018-09-24T21:17:07.548Z,1.27
2018-09-24T21:19:41.812Z,1.85
2018-09-24T21:22:15.936Z,1.55
2018-09-24T21:24:50.103Z,1.50
2018-09-24T21:27:24.949Z,1.20
2018-09-24T21:29:59.313Z,1.60
2018-09-24T21:32:33.313Z,1.20
2018-09-24T21:35:08.040Z,1.50
2018-09-24T21:37:43.120Z,1.80
2018-09-24T21:40:17.514Z,1.32
2018-09-24T21:42:51.748Z,1.30
2018-09-24T21:45:25.738Z,1.40
2018-09-24T21:48:00.579Z,1.55
2018-09-24T21:50:34.925Z,1.30
2018-09-24T21:53:09.169Z,1.60
2018-09-24T21:55:44.065Z,1.57
2018-09-24T21:58:19.403Z,1.35
2018-09-24T22:00:56.057Z,1.50
2018-09-24T22:03:30.327Z,1.72
2018-09-24T22:06:05.142Z,1.65
2018-09-24T22:08:39.502Z,1.75
2018-09-24T22:11:13.541Z,1.35
2018-09-24T22:13:47.603Z,1.52
2018-09-24T22:16:29.032Z,1.47
2018-09-24T22:19:05.110Z,1.70
2018-09-24T22:24:28.265Z,1.37
2018-09-24T22:27:02.637Z,2.15
2018-09-24T22:29:36.746Z,1.40
2018-09-24T22:32:11.444Z,1.65
2018-09-24T22:34:45.479Z,1.82
2018-09-24T22:37:20.659Z,1.85
2018-09-24T22:42:39.258Z,1.25
2018-09-24T22:45:13.300Z,1.37
2018-09-24T22:47:47.527Z,1.40
2018-09-24T22:53:09.234Z,1.20
2018-09-24T22:58:39.065Z,1.60
2018-09-24T23:01:13.122Z,2.25
2018-09-24T23:03:47.719Z,1.60
2018-09-24T23:06:21.874Z,1.98
2018-09-24T23:08:55.966Z,1.42
2018-09-24T23:11:30.202Z,1.40
2018-09-24T23:14:05.083Z,1.15
2018-09-24T23:16:38.898Z,1.32
2018-09-24T23:19:13.289Z,2.05
2018-09-24T23:21:48.030Z,1.75
2018-09-24T23:24:24.160Z,1.40
2018-09-24T23:26:58.392Z,1.40
2018-09-24T23:29:32.345Z,2.33
2018-09-24T23:33:09.514Z,1.67
2018-09-24T23:35:43.478Z,1.60
2018-09-24T23:38:17.519Z,1.80
2018-09-24T23:40:51.632Z,1.60
2018-09-24T23:43:26.475Z,1.80
2018-09-24T23:46:00.865Z,1.72
2018-09-24T23:48:34.813Z,1.65
2018-09-24T23:51:09.126Z,1.60
2018-09-24T23:53:43.996Z,2.37
2018-09-24T23:56:17.903Z,2.02
2018-09-24T23:58:52.162Z,1.60
